Time;durP1;ratioP1;P1;durP2;ratioP2;P2;SDS_P1;SDS_P2;PMS_P1;PMS_P2;Temp;Humidity;BMP_temperature;BMP_pressure;BME280_temperature;BME280_humidity;BME280_pressure;Samples;Min_cycle;Max_cycle;Signal;HPM_P1;HPM_P2
2022/07/01 00:01:44;;;;;;;5.97;5.20;;;-40.00;99.90;;;;;;5116287;28;20245;-70
2022/07/01 00:04:10;;;;;;;10.17;5.87;;;-40.00;99.90;;;;;;5116645;28;20172;-70
2022/07/01 00:06:37;;;;;;;10.03;7.03;;;-40.00;99.90;;;;;;5115593;28;20166;-79
2022/07/01 00:09:04;;;;;;;6.37;5.40;;;-40.00;99.90;;;;;;5116423;28;20170;-73
2022/07/01 00:11:31;;;;;;;6.43;5.83;;;-40.00;99.90;;;;;;5116396;28;20530;-67
2022/07/01 00:13:57;;;;;;;9.37;7.07;;;-40.00;99.90;;;;;;5118729;28;20241;-67
2022/07/01 00:16:23;;;;;;;12.83;6.73;;;-40.00;99.90;;;;;;5116319;28;20204;-68
2022/07/01 00:18:48;;;;;;;8.17;6.43;;;-40.00;99.90;;;;;;5116204;28;20167;-72
2022/07/01 00:21:14;;;;;;;9.93;6.27;;;-40.00;99.90;;;;;;5116151;28;20169;-70
2022/07/01 00:23:41;;;;;;;9.63;6.37;;;-40.00;99.90;;;;;;5115947;28;20215;-71
2022/07/01 00:26:08;;;;;;;7.20;6.60;;;-40.00;99.90;;;;;;5116064;28;20260;-71
2022/07/01 00:28:34;;;;;;;6.80;6.20;;;-40.00;99.90;;;;;;5115728;28;20175;-72
2022/07/01 00:30:59;;;;;;;13.57;6.50;;;-40.00;99.90;;;;;;5114991;28;20273;-70
2022/07/01 00:33:25;;;;;;;11.90;7.53;;;-40.00;99.90;;;;;;5116151;28;20170;-70
2022/07/01 00:35:53;;;;;;;8.37;7.23;;;-40.00;99.90;;;;;;5114856;28;20165;-72
2022/07/01 00:38:18;;;;;;;7.73;6.20;;;-40.00;99.90;;;;;;5115991;28;20240;-78
2022/07/01 00:40:44;;;;;;;7.73;6.83;;;-40.00;99.90;;;;;;5116027;28;20158;-75
2022/07/01 00:43:10;;;;;;;8.67;6.67;;;-40.00;99.90;;;;;;5114675;28;20172;-80
2022/07/01 00:45:36;;;;;;;9.17;6.57;;;-40.00;99.90;;;;;;5115713;28;20192;-77
2022/07/01 00:48:02;;;;;;;11.27;6.97;;;-40.00;99.90;;;;;;5115996;28;20159;-65
2022/07/01 00:50:27;;;;;;;9.73;7.53;;;-40.00;99.90;;;;;;5115893;28;20193;-67
2022/07/01 00:52:54;;;;;;;15.97;7.37;;;-40.00;99.90;;;;;;5115898;28;20208;-67
2022/07/01 00:55:20;;;;;;;15.67;8.13;;;-40.00;99.90;;;;;;5114641;28;20197;-67
2022/07/01 00:57:45;;;;;;;8.17;7.37;;;-40.00;99.90;;;;;;5115634;28;20161;-67
2022/07/01 01:00:15;;;;;;;19.27;7.93;;;-40.00;99.90;;;;;;5115883;28;20581;-71
2022/07/01 01:02:41;;;;;;;10.77;7.60;;;-40.00;99.90;;;;;;5115764;28;20170;-67
2022/07/01 01:05:08;;;;;;;9.30;7.73;;;-40.00;99.90;;;;;;5114557;28;20511;-72
2022/07/01 01:07:34;;;;;;;10.17;8.57;;;-40.00;99.90;;;;;;5114735;28;20265;-68
2022/07/01 01:10:04;;;;;;;10.67;8.87;;;-40.00;99.90;;;;;;5115783;28;20174;-67
2022/07/01 01:12:30;;;;;;;12.57;9.93;;;-40.00;99.90;;;;;;5115324;28;20205;-73
2022/07/01 01:14:57;;;;;;;14.00;9.80;;;-40.00;99.90;;;;;;5115773;28;20244;-77
2022/07/01 01:17:23;;;;;;;18.20;9.63;;;-40.00;99.90;;;;;;5114631;28;20176;-69
2022/07/01 01:19:50;;;;;;;12.67;10.10;;;-40.00;99.90;;;;;;5115479;28;20177;-67
2022/07/01 01:22:17;;;;;;;14.60;9.97;;;-40.00;99.90;;;;;;5115700;28;20489;-69
2022/07/01 01:24:44;;;;;;;12.83;9.73;;;-40.00;99.90;;;;;;5115288;28;20177;-75
2022/07/01 01:27:11;;;;;;;13.73;9.67;;;-40.00;99.90;;;;;;5115621;28;20166;-71
2022/07/01 01:29:38;;;;;;;12.33;9.87;;;-40.00;99.90;;;;;;5115600;28;20200;-75
2022/07/01 01:32:05;;;;;;;13.73;8.50;;;-40.00;99.90;;;;;;5115418;28;20197;-69
2022/07/01 01:34:32;;;;;;;12.97;8.47;;;-40.00;99.90;;;;;;5117046;28;20169;-69
2022/07/01 01:36:59;;;;;;;13.03;9.77;;;-40.00;99.90;;;;;;5119221;28;20169;-77
2022/07/01 01:39:24;;;;;;;13.53;8.47;;;-40.00;99.90;;;;;;5118990;28;20176;-69
2022/07/01 01:41:50;;;;;;;12.53;9.10;;;-40.00;99.90;;;;;;5119035;28;20181;-69
2022/07/01 01:44:16;;;;;;;15.47;9.43;;;-40.00;99.90;;;;;;5118420;28;20181;-71
2022/07/01 01:46:42;;;;;;;15.13;9.03;;;-40.00;99.90;;;;;;5119092;28;20188;-75
2022/07/01 01:49:08;;;;;;;13.53;8.93;;;-40.00;99.90;;;;;;5118850;28;20180;-74
2022/07/01 01:51:34;;;;;;;16.57;9.53;;;-40.00;99.90;;;;;;5118792;28;20242;-76
2022/07/01 01:54:00;;;;;;;20.27;9.30;;;-40.00;99.90;;;;;;5118701;28;20178;-75
2022/07/01 01:56:26;;;;;;;12.07;8.97;;;-40.00;99.90;;;;;;5117736;28;20201;-76
2022/07/01 01:58:52;;;;;;;16.13;9.83;;;-40.00;99.90;;;;;;5118512;28;20192;-67
2022/07/01 02:01:19;;;;;;;23.57;11.27;;;-40.00;99.90;;;;;;5118655;27;20170;-76
2022/07/01 02:03:47;;;;;;;14.63;9.70;;;-40.00;99.90;;;;;;5118414;28;20174;-71
2022/07/01 02:06:15;;;;;;;16.70;8.83;;;-40.00;99.90;;;;;;5118487;28;20173;-69
2022/07/01 02:08:41;;;;;;;17.13;9.70;;;-40.00;99.90;;;;;;5118106;28;20173;-78
2022/07/01 02:11:07;;;;;;;12.23;7.97;;;-40.00;99.90;;;;;;5118694;28;20193;-82
2022/07/01 02:13:33;;;;;;;15.43;9.10;;;-40.00;99.90;;;;;;5118389;28;20261;-68
2022/07/01 02:15:59;;;;;;;16.33;10.90;;;-40.00;99.90;;;;;;5118276;28;20178;-67
2022/07/01 02:18:25;;;;;;;11.43;9.20;;;-40.00;99.90;;;;;;5118373;27;20169;-68
2022/07/01 02:20:52;;;;;;;13.03;10.27;;;-40.00;99.90;;;;;;5118353;28;20158;-67
2022/07/01 02:23:18;;;;;;;14.30;9.27;;;-40.00;99.90;;;;;;5117926;28;20230;-68
2022/07/01 02:25:46;;;;;;;12.80;8.77;;;-40.00;99.90;;;;;;5118242;27;20309;-71
2022/07/01 02:28:12;;;;;;;11.13;8.80;;;-40.00;99.90;;;;;;5117106;28;20674;-71
2022/07/01 02:30:38;;;;;;;14.10;9.33;;;-40.00;99.90;;;;;;5118037;28;20241;-67
2022/07/01 02:33:05;;;;;;;17.37;9.87;;;-40.00;99.90;;;;;;5117951;28;20166;-67
2022/07/01 02:35:36;;;;;;;9.70;7.90;;;-40.00;99.90;;;;;;5118161;28;20545;-68
2022/07/01 02:38:03;;;;;;;17.40;10.50;;;-40.00;99.90;;;;;;5117674;28;20190;-73
2022/07/01 02:40:29;;;;;;;18.47;9.33;;;-40.00;99.90;;;;;;5118129;28;20165;-73
2022/07/01 02:42:54;;;;;;;15.77;8.73;;;-40.00;99.90;;;;;;5117664;28;20257;-73
2022/07/01 02:45:21;;;;;;;11.47;8.37;;;-40.00;99.90;;;;;;5116801;28;20178;-68
2022/07/01 02:47:46;;;;;;;19.20;7.83;;;-40.00;99.90;;;;;;5117744;28;20220;-70
2022/07/01 02:50:13;;;;;;;9.63;8.63;;;-40.00;99.90;;;;;;5117734;28;20229;-69
2022/07/01 02:52:40;;;;;;;13.57;9.07;;;-40.00;99.90;;;;;;5117061;28;20209;-67
2022/07/01 02:55:09;;;;;;;14.23;8.67;;;-40.00;99.90;;;;;;5117751;28;20489;-74
2022/07/01 02:57:35;;;;;;;13.33;9.07;;;-40.00;99.90;;;;;;5117584;28;20194;-73
2022/07/01 03:00:06;;;;;;;11.03;8.33;;;-40.00;99.90;;;;;;5117562;28;20204;-71
2022/07/01 03:02:32;;;;;;;12.27;7.60;;;-40.00;99.90;;;;;;5117359;28;20172;-68
2022/07/01 03:04:58;;;;;;;13.43;8.63;;;-40.00;99.90;;;;;;5117525;27;20253;-72
2022/07/01 03:07:24;;;;;;;14.73;7.70;;;-40.00;99.90;;;;;;5117310;28;20271;-73
2022/07/01 03:09:50;;;;;;;9.87;7.50;;;-40.00;99.90;;;;;;5117035;28;20474;-70
2022/07/01 03:12:27;;;;;;;14.60;9.23;;;-40.00;99.90;;;;;;5116344;28;20300;-67
2022/07/01 03:14:53;;;;;;;11.00;8.53;;;-40.00;99.90;;;;;;5117198;28;20536;-68
2022/07/01 03:17:19;;;;;;;10.33;7.80;;;-40.00;99.90;;;;;;5117444;28;20177;-69
2022/07/01 03:19:46;;;;;;;12.83;8.43;;;-40.00;99.90;;;;;;5116974;28;20170;-76
2022/07/01 03:22:12;;;;;;;17.30;7.30;;;-40.00;99.90;;;;;;5116984;28;20170;-69
2022/07/01 03:24:38;;;;;;;8.07;6.80;;;-40.00;99.90;;;;;;5116048;28;20184;-76
2022/07/01 03:27:03;;;;;;;13.67;7.33;;;-40.00;99.90;;;;;;5116949;28;20169;-67
2022/07/01 03:29:29;;;;;;;16.83;7.30;;;-40.00;99.90;;;;;;5115932;28;20181;-68
2022/07/01 03:31:55;;;;;;;11.23;7.40;;;-40.00;99.90;;;;;;5116882;28;20205;-67
2022/07/01 03:34:21;;;;;;;8.20;6.97;;;-40.00;99.90;;;;;;5116846;28;20482;-70
2022/07/01 03:36:47;;;;;;;17.40;7.43;;;-40.00;99.90;;;;;;5116467;28;20474;-75
2022/07/01 03:39:12;;;;;;;9.07;8.17;;;-40.00;99.90;;;;;;5115877;28;20182;-69
2022/07/01 03:41:38;;;;;;;10.07;7.03;;;-40.00;99.90;;;;;;5116872;28;20170;-69
2022/07/01 03:44:05;;;;;;;9.53;7.97;;;-40.00;99.90;;;;;;5116579;28;20592;-68
2022/07/01 03:46:31;;;;;;;12.90;7.97;;;-40.00;99.90;;;;;;5116699;28;20222;-69
2022/07/01 03:48:58;;;;;;;15.90;8.23;;;-40.00;99.90;;;;;;5116215;28;20200;-70
2022/07/01 03:51:24;;;;;;;8.13;7.53;;;-40.00;99.90;;;;;;5116426;28;20258;-71
2022/07/01 03:56:34;;;;;;;15.60;9.20;;;-40.00;99.90;;;;;;5116135;28;20172;-66
2022/07/01 03:59:00;;;;;;;16.53;9.53;;;-40.00;99.90;;;;;;5116180;28;20170;-72
2022/07/01 04:01:26;;;;;;;10.70;8.80;;;-40.00;99.90;;;;;;5115511;28;20174;-67
2022/07/01 04:03:52;;;;;;;14.37;8.53;;;-40.00;99.90;;;;;;5116060;28;20260;-67
2022/07/01 04:06:18;;;;;;;9.40;8.10;;;-40.00;99.90;;;;;;5116230;28;20229;-67
2022/07/01 04:08:44;;;;;;;13.90;8.77;;;-40.00;99.90;;;;;;5116326;28;20245;-68
2022/07/01 04:11:10;;;;;;;9.50;6.77;;;-40.00;99.90;;;;;;5116242;28;20625;-68
2022/07/01 04:13:39;;;;;;;8.63;7.20;;;-40.00;99.90;;;;;;5115187;28;20171;-67
2022/07/01 04:16:05;;;;;;;6.30;5.70;;;-40.00;99.90;;;;;;5116088;28;20186;-75
2022/07/01 04:18:32;;;;;;;9.57;6.50;;;-40.00;99.90;;;;;;5116324;28;20166;-69
2022/07/01 04:23:43;;;;;;;14.10;6.87;;;-40.00;99.90;;;;;;5116382;28;20233;-67
2022/07/01 04:26:09;;;;;;;9.20;6.50;;;-40.00;99.90;;;;;;5116144;28;20166;-72
2022/07/01 04:28:35;;;;;;;6.60;5.50;;;-40.00;99.90;;;;;;5116227;28;20226;-70
2022/07/01 04:31:00;;;;;;;10.73;5.90;;;-40.00;99.90;;;;;;5115817;28;20192;-66
2022/07/01 04:33:26;;;;;;;7.93;6.43;;;-40.00;99.90;;;;;;5115904;28;20302;-71
2022/07/01 04:35:52;;;;;;;10.83;6.53;;;-40.00;99.90;;;;;;5116012;28;20165;-72
2022/07/01 04:38:18;;;;;;;11.53;6.43;;;-40.00;99.90;;;;;;5116007;28;20177;-73
2022/07/01 04:41:58;;;;;;;10.73;6.10;;;-40.00;99.90;;;;;;5116047;28;20235;-67
2022/07/01 04:43:29;;;;;;;9.47;6.77;;;-40.00;99.90;;;;;;5115950;28;20192;-68
2022/07/01 04:45:55;;;;;;;5.40;4.90;;;-40.00;99.90;;;;;;5115712;28;20555;-66
2022/07/01 04:48:21;;;;;;;10.80;6.57;;;-40.00;99.90;;;;;;5115639;28;20252;-70
2022/07/01 04:50:47;;;;;;;19.00;6.20;;;-40.00;99.90;;;;;;5115735;28;20186;-67
2022/07/01 04:53:14;;;;;;;11.00;5.67;;;-40.00;99.90;;;;;;5115808;28;20231;-70
2022/07/01 04:55:40;;;;;;;5.53;4.73;;;-40.00;99.90;;;;;;5115872;28;20170;-68
2022/07/01 04:58:05;;;;;;;10.43;4.90;;;-40.00;99.90;;;;;;5115917;28;20177;-66
2022/07/01 05:00:31;;;;;;;9.23;6.10;;;-40.00;99.90;;;;;;5115765;28;20166;-66
2022/07/01 05:02:57;;;;;;;7.60;5.90;;;-40.00;99.90;;;;;;5115591;28;20173;-73
2022/07/01 05:05:23;;;;;;;8.30;4.93;;;-40.00;99.90;;;;;;5115787;28;20449;-73
2022/07/01 05:07:49;;;;;;;7.87;5.20;;;-40.00;99.90;;;;;;5115739;28;20185;-67
2022/07/01 05:10:15;;;;;;;10.13;6.33;;;-40.00;99.90;;;;;;5118754;28;20478;-72
2022/07/01 05:12:41;;;;;;;7.63;5.33;;;-40.00;99.90;;;;;;5119645;28;20315;-67
2022/07/01 05:15:08;;;;;;;9.57;6.07;;;-40.00;99.90;;;;;;5119659;28;20172;-73
2022/07/01 05:23:03;;;;;;;8.07;6.27;;;-40.00;99.90;;;;;;5119679;28;20176;-67
2022/07/01 05:25:28;;;;;;;5.83;5.33;;;-40.00;99.90;;;;;;5119448;28;20170;-70
2022/07/01 05:27:54;;;;;;;6.30;5.00;;;-40.00;99.90;;;;;;5119244;28;20272;-82
2022/07/01 05:30:21;;;;;;;5.80;5.30;;;-40.00;99.90;;;;;;5119323;28;20259;-68
2022/07/01 05:32:47;;;;;;;7.00;5.13;;;-40.00;99.90;;;;;;5118055;28;20212;-68
2022/07/01 05:35:14;;;;;;;10.67;5.67;;;-40.00;99.90;;;;;;5119296;28;20174;-71
2022/07/01 05:37:40;;;;;;;9.17;4.70;;;-40.00;99.90;;;;;;5119036;28;20384;-67
2022/07/01 05:40:07;;;;;;;10.03;5.43;;;-40.00;99.90;;;;;;5121397;27;20174;-67
2022/07/01 05:42:32;;;;;;;9.53;5.53;;;-40.00;99.90;;;;;;5139269;27;20177;-74
2022/07/01 05:44:58;;;;;;;10.00;5.33;;;-40.00;99.90;;;;;;5138547;27;20187;-75
2022/07/01 05:47:24;;;;;;;6.70;4.53;;;-40.00;99.90;;;;;;5139332;27;20177;-74
2022/07/01 05:49:50;;;;;;;11.67;6.67;;;-40.00;99.90;;;;;;5140427;27;20201;-70
2022/07/01 05:52:15;;;;;;;9.23;5.70;;;-40.00;99.90;;;;;;5150677;27;20236;-72
2022/07/01 05:54:41;;;;;;;18.73;5.27;;;-40.00;99.90;;;;;;5139387;27;20178;-68
2022/07/01 05:57:07;;;;;;;8.37;4.53;;;-40.00;99.90;;;;;;5138949;27;20177;-79
2022/07/01 05:59:33;;;;;;;7.00;5.00;;;-40.00;99.90;;;;;;5139495;27;20168;-73
2022/07/01 06:01:59;;;;;;;7.67;5.00;;;-40.00;99.90;;;;;;5138697;27;20263;-68
2022/07/01 06:04:24;;;;;;;12.67;5.20;;;-40.00;99.90;;;;;;5139104;27;20590;-68
2022/07/01 06:06:50;;;;;;;8.53;4.30;;;-40.00;99.90;;;;;;5137412;27;20177;-67
2022/07/01 06:09:16;;;;;;;14.27;6.13;;;-40.00;99.90;;;;;;5138852;27;20199;-76
2022/07/01 06:11:42;;;;;;;8.30;6.03;;;-40.00;99.90;;;;;;5138564;27;20203;-79
2022/07/01 06:14:08;;;;;;;7.57;4.27;;;-40.00;99.90;;;;;;5139057;27;20200;-72
2022/07/01 06:16:34;;;;;;;8.87;4.43;;;-40.00;99.90;;;;;;5137802;27;20189;-75
2022/07/01 06:19:04;;;;;;;8.77;6.07;;;-40.00;99.90;;;;;;5137621;27;20173;-76
2022/07/01 06:21:30;;;;;;;5.43;4.37;;;-40.00;99.90;;;;;;5138895;27;20183;-75
2022/07/01 06:23:56;;;;;;;6.70;4.60;;;-40.00;99.90;;;;;;5138377;27;20256;-76
2022/07/01 06:26:22;;;;;;;10.23;4.80;;;-40.00;99.90;;;;;;5138916;27;20272;-76
2022/07/01 06:28:48;;;;;;;5.53;4.40;;;-40.00;99.90;;;;;;5137757;27;20606;-74
2022/07/01 06:31:14;;;;;;;9.13;4.10;;;-40.00;99.90;;;;;;5137850;27;20224;-78
2022/07/01 06:33:39;;;;;;;11.77;5.03;;;-40.00;99.90;;;;;;5138506;27;20166;-74
2022/07/01 06:36:05;;;;;;;10.17;4.37;;;-40.00;99.90;;;;;;5138796;27;20591;-74
2022/07/01 06:38:31;;;;;;;8.63;4.27;;;-40.00;99.90;;;;;;5137250;27;20173;-70
2022/07/01 06:43:44;;;;;;;10.67;4.43;;;-40.00;99.90;;;;;;5138413;27;20183;-68
2022/07/01 06:46:10;;;;;;;4.70;2.70;;;-40.00;99.90;;;;;;5138323;27;20171;-68
2022/07/01 06:48:36;;;;;;;7.87;4.13;;;-40.00;99.90;;;;;;5138355;27;20165;-74
2022/07/01 06:51:02;;;;;;;7.23;3.73;;;-40.00;99.90;;;;;;5137594;27;20242;-70
2022/07/01 06:53:28;;;;;;;20.70;4.40;;;-40.00;99.90;;;;;;5137887;27;20248;-68
2022/07/01 06:55:54;;;;;;;5.70;3.30;;;-40.00;99.90;;;;;;5138432;27;20244;-80
2022/07/01 06:58:20;;;;;;;13.07;4.20;;;-40.00;99.90;;;;;;5129365;27;20210;-77
2022/07/01 07:00:46;;;;;;;12.10;4.40;;;-40.00;99.90;;;;;;5135166;27;20172;-69
2022/07/01 07:03:12;;;;;;;3.57;2.13;;;-40.00;99.90;;;;;;5136258;27;20673;-71
2022/07/01 07:05:37;;;;;;;6.57;2.73;;;-40.00;99.90;;;;;;5137449;27;20176;-68
2022/07/01 07:08:03;;;;;;;10.03;3.70;;;-40.00;99.90;;;;;;5134889;27;20241;-67
2022/07/01 07:10:29;;;;;;;7.60;4.03;;;-40.00;99.90;;;;;;5137586;27;20158;-74
2022/07/01 07:12:55;;;;;;;6.23;2.97;;;-40.00;99.90;;;;;;5136515;27;20516;-67
2022/07/01 07:15:21;;;;;;;7.53;2.60;;;-40.00;99.90;;;;;;5136525;27;20175;-71
2022/07/01 07:17:47;;;;;;;12.53;3.30;;;-40.00;99.90;;;;;;5139029;27;20187;-68
2022/07/01 07:20:12;;;;;;;4.40;1.63;;;-40.00;99.90;;;;;;5139703;27;20219;-76
2022/07/01 07:22:38;;;;;;;5.23;1.80;;;-40.00;99.90;;;;;;5137498;27;20169;-82
2022/07/01 07:25:05;;;;;;;5.07;2.20;;;-40.00;99.90;;;;;;5137943;27;20299;-72
2022/07/01 07:27:30;;;;;;;3.17;1.80;;;-40.00;99.90;;;;;;5137269;27;20286;-81
2022/07/01 07:29:56;;;;;;;6.67;1.90;;;-40.00;99.90;;;;;;5137206;27;20205;-68
2022/07/01 07:32:22;;;;;;;12.10;3.13;;;-40.00;99.90;;;;;;5136533;27;20200;-77
2022/07/01 07:34:47;;;;;;;6.57;2.10;;;-40.00;99.90;;;;;;5137024;27;20161;-73
2022/07/01 07:37:13;;;;;;;4.47;1.70;;;-40.00;99.90;;;;;;5137036;27;20227;-80
2022/07/01 07:39:39;;;;;;;3.43;1.37;;;-40.00;99.90;;;;;;5137015;27;20245;-68
2022/07/01 07:42:05;;;;;;;4.23;1.73;;;-40.00;99.90;;;;;;5135791;27;20165;-73
2022/07/01 07:44:31;;;;;;;8.90;3.20;;;-40.00;99.90;;;;;;5134336;27;20521;-71
2022/07/01 07:46:57;;;;;;;7.43;3.53;;;-40.00;99.90;;;;;;5135573;27;20170;-71
2022/07/01 07:49:24;;;;;;;6.57;2.17;;;-40.00;99.90;;;;;;5135159;27;20189;-70
2022/07/01 07:51:50;;;;;;;6.63;2.40;;;-40.00;99.90;;;;;;5135181;27;20636;-67
2022/07/01 07:54:16;;;;;;;8.90;1.73;;;-40.00;99.90;;;;;;5133947;27;20162;-74
2022/07/01 07:56:42;;;;;;;7.70;2.37;;;-40.00;99.90;;;;;;5135155;27;20168;-73
2022/07/01 07:59:08;;;;;;;2.70;1.37;;;-40.00;99.90;;;;;;5135738;27;20162;-69
2022/07/01 08:01:33;;;;;;;2.73;0.90;;;-40.00;99.90;;;;;;5136253;27;20169;-73
2022/07/01 08:03:59;;;;;;;15.83;2.33;;;-40.00;99.90;;;;;;5136512;27;20165;-73
2022/07/01 08:06:25;;;;;;;3.30;1.83;;;-40.00;99.90;;;;;;5136599;27;20161;-70
2022/07/01 08:08:51;;;;;;;2.93;1.10;;;-40.00;99.90;;;;;;5136941;27;20169;-69
2022/07/01 08:11:17;;;;;;;4.67;1.63;;;-40.00;99.90;;;;;;5136413;27;20188;-69
2022/07/01 08:13:43;;;;;;;2.43;1.97;;;-40.00;99.90;;;;;;5136708;27;20545;-74
2022/07/01 08:16:09;;;;;;;11.13;2.73;;;-40.00;99.90;;;;;;5136491;27;20246;-71
2022/07/01 08:18:35;;;;;;;6.13;1.77;;;-40.00;99.90;;;;;;5136787;27;20168;-70
2022/07/01 08:21:01;;;;;;;7.00;2.70;;;-40.00;99.90;;;;;;5136554;27;20171;-73
2022/07/01 08:23:27;;;;;;;4.00;1.30;;;-40.00;99.90;;;;;;5136709;27;20161;-74
2022/07/01 08:25:53;;;;;;;8.37;2.47;;;-40.00;99.90;;;;;;5136426;27;20161;-67
2022/07/01 08:28:19;;;;;;;1.70;1.27;;;-40.00;99.90;;;;;;5136743;27;20218;-67
2022/07/01 08:30:45;;;;;;;4.60;1.27;;;-40.00;99.90;;;;;;5135353;27;20192;-67
2022/07/01 08:33:11;;;;;;;5.27;1.30;;;-40.00;99.90;;;;;;5136512;27;20249;-72
2022/07/01 08:35:37;;;;;;;2.37;1.20;;;-40.00;99.90;;;;;;5136609;27;20165;-67
2022/07/01 08:38:03;;;;;;;1.37;0.67;;;-40.00;99.90;;;;;;5136575;27;20230;-68
2022/07/01 08:40:31;;;;;;;6.40;1.97;;;-40.00;99.90;;;;;;5135912;27;20165;-73
2022/07/01 08:43:04;;;;;;;3.37;1.40;;;-40.00;99.90;;;;;;5137213;27;20165;-70
2022/07/01 08:45:31;;;;;;;2.73;1.40;;;-40.00;99.90;;;;;;5140639;27;20598;-68
2022/07/01 08:48:02;;;;;;;3.80;1.00;;;-40.00;99.90;;;;;;5140001;27;20173;-71
2022/07/01 08:50:34;;;;;;;2.73;1.17;;;-40.00;99.90;;;;;;5139478;27;20220;-68
2022/07/01 08:53:00;;;;;;;7.00;1.27;;;-40.00;99.90;;;;;;5140604;27;20204;-68
2022/07/01 08:55:27;;;;;;;2.80;1.20;;;-40.00;99.90;;;;;;5140262;27;20169;-76
2022/07/01 08:57:53;;;;;;;4.63;1.57;;;-40.00;99.90;;;;;;5139388;27;20165;-71
2022/07/01 09:00:20;;;;;;;5.43;2.57;;;-40.00;99.90;;;;;;5140380;27;20247;-68
2022/07/01 09:02:54;;;;;;;1.83;1.70;;;-40.00;99.90;;;;;;5140583;27;20252;-69
2022/07/01 09:05:21;;;;;;;3.33;1.10;;;-40.00;99.90;;;;;;5140371;27;20168;-69
2022/07/01 09:07:49;;;;;;;3.33;1.87;;;-40.00;99.90;;;;;;5140288;27;20169;-73
2022/07/01 09:10:18;;;;;;;3.67;1.73;;;-40.00;99.90;;;;;;5140132;27;20161;-73
2022/07/01 09:12:47;;;;;;;5.23;1.60;;;-40.00;99.90;;;;;;5139063;27;20196;-73
2022/07/01 09:15:40;;;;;;;1.13;1.00;;;-40.00;99.90;;;;;;5140048;27;20162;-77
2022/07/01 09:18:11;;;;;;;1.57;1.10;;;-40.00;99.90;;;;;;5136672;27;20677;-71
2022/07/01 09:20:41;;;;;;;3.80;1.87;;;-40.00;99.90;;;;;;5140036;27;20621;-76
2022/07/01 09:23:07;;;;;;;6.90;1.40;;;-40.00;99.90;;;;;;5139981;27;20187;-69
2022/07/01 09:25:43;;;;;;;10.23;2.17;;;-40.00;99.90;;;;;;5139743;27;20184;-70
2022/07/01 09:28:19;;;;;;;6.30;1.93;;;-40.00;99.90;;;;;;5139993;27;20161;-68
2022/07/01 09:30:48;;;;;;;4.90;1.63;;;-40.00;99.90;;;;;;5139985;27;20163;-71
2022/07/01 09:33:17;;;;;;;3.00;1.97;;;-40.00;99.90;;;;;;5139624;27;20357;-78
2022/07/01 09:35:45;;;;;;;5.20;2.13;;;-40.00;99.90;;;;;;5139942;27;20256;-70
2022/07/01 09:38:14;;;;;;;3.27;1.70;;;-40.00;99.90;;;;;;5139350;27;20173;-73
2022/07/01 09:40:51;;;;;;;6.33;1.83;;;-40.00;99.90;;;;;;5139873;27;20165;-69
2022/07/01 09:43:26;;;;;;;6.40;1.73;;;-40.00;99.90;;;;;;5139487;27;20565;-70
2022/07/01 09:46:00;;;;;;;4.43;1.90;;;-40.00;99.90;;;;;;5139446;27;20173;-72
2022/07/01 09:48:32;;;;;;;4.33;1.47;;;-40.00;99.90;;;;;;5139198;27;20157;-69
2022/07/01 09:50:59;;;;;;;10.57;2.13;;;-40.00;99.90;;;;;;5139309;27;20181;-70
2022/07/01 09:53:25;;;;;;;2.93;2.03;;;-40.00;99.90;;;;;;5138842;27;20443;-68
2022/07/01 09:55:51;;;;;;;1.60;1.50;;;-40.00;99.90;;;;;;5138677;27;20173;-70
2022/07/01 09:58:17;;;;;;;4.63;1.80;;;-40.00;99.90;;;;;;5138119;27;20169;-68
2022/07/01 10:00:44;;;;;;;2.30;1.60;;;-40.00;99.90;;;;;;5139228;27;20564;-68
2022/07/01 10:03:11;;;;;;;2.23;1.90;;;-40.00;99.90;;;;;;5139105;27;20177;-68
2022/07/01 10:05:45;;;;;;;7.33;1.97;;;-40.00;99.90;;;;;;5139100;27;20446;-72
2022/07/01 10:08:23;;;;;;;2.77;1.57;;;-40.00;97.60;;;;;;5139147;27;20176;-68
2022/07/01 10:10:51;;;;;;;9.17;1.90;;;-40.00;96.70;;;;;;5138366;27;20463;-79
2022/07/01 10:13:24;;;;;;;2.83;2.03;;;-40.00;95.10;;;;;;5138921;27;20173;-70
2022/07/01 10:15:52;;;;;;;4.60;2.37;;;-40.00;97.00;;;;;;5138356;27;20173;-68
2022/07/01 10:18:22;;;;;;;1.67;1.57;;;-40.00;97.70;;;;;;5139121;27;20183;-70
2022/07/01 10:20:48;;;;;;;3.93;1.63;;;-40.00;98.00;;;;;;5137777;27;20165;-71
2022/07/01 10:23:14;;;;;;;3.20;1.80;;;-40.00;98.90;;;;;;5139678;27;20468;-67
2022/07/01 10:25:44;;;;;;;2.10;1.60;;;-40.00;97.60;;;;;;5139098;27;20214;-68
2022/07/01 10:28:24;;;;;;;2.03;1.93;;;-40.00;98.90;;;;;;5139095;27;20405;-70
2022/07/01 10:31:05;;;;;;;4.73;2.17;;;-40.00;98.50;;;;;;5141101;27;20238;-71
2022/07/01 10:33:34;;;;;;;3.97;1.90;;;-40.00;99.40;;;;;;5134271;27;20181;-70
2022/07/01 10:36:07;;;;;;;2.30;1.60;;;-40.00;98.30;;;;;;5137907;27;20165;-69
2022/07/01 10:38:34;;;;;;;4.43;1.90;;;-40.00;96.70;;;;;;5135112;27;20207;-66
2022/07/01 10:41:09;;;;;;;3.87;1.50;;;-40.00;96.50;;;;;;5132370;27;20557;-68
2022/07/01 10:43:37;;;;;;;1.53;1.40;;;-40.00;97.30;;;;;;5136849;27;20169;-68
2022/07/01 10:46:04;;;;;;;10.43;3.07;;;-40.00;97.40;;;;;;5137775;27;20185;-85
2022/07/01 10:48:33;;;;;;;2.03;1.77;;;-40.00;97.20;;;;;;5136279;27;20169;-73
2022/07/01 10:51:00;;;;;;;2.57;1.30;;;-40.00;95.70;;;;;;5137539;27;20452;-76
2022/07/01 10:53:46;;;;;;;1.97;1.33;;;-40.00;98.30;;;;;;5138056;27;20169;-71
2022/07/01 10:56:17;;;;;;;3.97;1.47;;;-40.00;93.30;;;;;;5138408;27;20186;-75
2022/07/01 10:58:42;;;;;;;2.30;1.37;;;-40.00;91.60;;;;;;5137753;27;20240;-77
2022/07/01 11:01:08;;;;;;;2.60;1.20;;;-40.00;87.70;;;;;;5138319;27;20264;-74
2022/07/01 11:03:39;;;;;;;1.43;1.10;;;-40.00;88.60;;;;;;5137836;27;20572;-72
2022/07/01 11:06:05;;;;;;;1.53;1.07;;;-40.00;88.60;;;;;;5137724;27;20169;-67
2022/07/01 11:08:31;;;;;;;2.43;1.00;;;-40.00;88.50;;;;;;5136941;27;20173;-70
2022/07/01 11:11:01;;;;;;;2.20;1.27;;;-40.00;90.50;;;;;;5137316;27;20157;-70
2022/07/01 11:13:27;;;;;;;2.40;1.53;;;-40.00;88.50;;;;;;5136250;27;20447;-72
2022/07/01 11:15:54;;;;;;;2.70;1.50;;;-40.00;86.30;;;;;;5137543;27;20177;-73
2022/07/01 11:18:21;;;;;;;2.70;1.37;;;-40.00;86.60;;;;;;5136336;27;20483;-77
2022/07/01 11:20:46;;;;;;;1.10;0.90;;;-40.00;89.00;;;;;;5137496;27;20165;-75
2022/07/01 11:23:13;;;;;;;2.73;1.33;;;-40.00;86.30;;;;;;5137148;27;20169;-73
2022/07/01 11:25:39;;;;;;;1.73;1.03;;;-40.00;81.50;;;;;;5136412;27;20199;-74
2022/07/01 11:28:04;;;;;;;4.90;1.53;;;-40.00;82.80;;;;;;5137513;27;20173;-80
2022/07/01 11:30:30;;;;;;;1.70;1.00;;;-40.00;87.40;;;;;;5137403;27;20173;-72
2022/07/01 11:32:58;;;;;;;3.73;0.63;;;-40.00;83.30;;;;;;5137444;27;20200;-73
2022/07/01 11:41:07;;;;;;;2.53;1.90;;;-40.00;76.20;;;;;;5112745;28;20180;-70
2022/07/01 11:43:36;;;;;;;1.40;0.80;;;-40.00;80.80;;;;;;5113449;28;20588;-69
2022/07/01 11:46:04;;;;;;;1.67;0.70;;;-40.00;77.50;;;;;;5113392;28;20224;-72
2022/07/01 11:48:38;;;;;;;2.50;1.63;;;-40.00;72.00;;;;;;5110952;28;20257;-69
2022/07/01 11:51:15;;;;;;;1.63;1.03;;;-40.00;68.00;;;;;;5092726;28;20187;-70
2022/07/01 11:53:59;;;;;;;1.83;0.60;;;-40.00;67.10;;;;;;5072454;28;20171;-69
2022/07/01 11:56:34;;;;;;;1.60;0.60;;;-40.00;64.70;;;;;;5072119;28;20317;-72
2022/07/01 11:59:01;;;;;;;5.00;1.23;;;-40.00;67.70;;;;;;5071302;28;20167;-69
2022/07/01 12:01:28;;;;;;;0.57;0.57;;;-40.00;62.90;;;;;;5072237;28;20246;-72
2022/07/01 12:03:56;;;;;;;3.40;1.43;;;-40.00;58.10;;;;;;5071875;28;20172;-70
2022/07/01 12:06:23;;;;;;;2.10;1.07;;;-40.00;58.60;;;;;;5070754;28;20180;-69
2022/07/01 12:08:50;;;;;;;2.07;1.03;;;-40.00;60.00;;;;;;5071856;28;20225;-69
2022/07/01 12:11:17;;;;;;;4.90;1.03;;;-40.00;59.60;;;;;;5072113;28;20190;-70
2022/07/01 12:13:47;;;;;;;2.10;0.70;;;-40.00;62.10;;;;;;5071981;28;20175;-69
2022/07/01 12:16:14;;;;;;;2.23;1.10;;;-40.00;66.20;;;;;;5071395;28;20249;-69
2022/07/01 12:19:00;;;;;;;2.10;0.90;;;-40.00;67.10;;;;;;5075422;28;20175;-75
2022/07/01 12:21:27;;;;;;;4.23;1.60;;;-40.00;64.20;;;;;;5092038;28;20174;-71
2022/07/01 12:24:07;;;;;;;1.47;0.77;;;-40.00;62.60;;;;;;5091737;28;20175;-70
2022/07/01 12:26:34;;;;;;;2.03;1.07;;;-40.00;60.50;;;;;;5090422;28;20178;-70
2022/07/01 12:28:59;;;;;;;3.90;1.47;;;-40.00;56.80;;;;;;5092185;28;20258;-71
2022/07/01 12:31:25;;;;;;;1.70;0.87;;;-40.00;54.20;;;;;;5091822;28;20262;-75
2022/07/01 12:33:52;;;;;;;1.97;0.70;;;-40.00;53.00;;;;;;5090583;28;20182;-72
2022/07/01 12:36:18;;;;;;;0.63;0.50;;;-40.00;49.50;;;;;;5090252;28;20218;-70
2022/07/01 12:38:44;;;;;;;5.00;1.17;;;-40.00;50.10;;;;;;5090311;28;20186;-75
2022/07/01 12:41:35;;;;;;;3.77;1.47;;;-40.00;50.80;;;;;;5086917;28;20291;-72
2022/07/01 12:44:19;;;;;;;2.07;0.40;;;-40.00;52.10;;;;;;5091714;28;20213;-70
2022/07/01 12:46:44;;;;;;;0.60;0.50;;;-40.00;51.40;;;;;;5090721;28;20566;-68
2022/07/01 12:49:22;;;;;;;2.47;0.80;;;-40.00;51.80;;;;;;5080776;28;20188;-67
2022/07/01 12:51:48;;;;;;;3.53;1.90;;;24.40;85.30;;;;;;5077250;28;20174;-70
2022/07/01 12:54:49;;;;;;;2.20;1.07;;;-40.00;49.40;;;;;;5077700;28;20172;-67